createdAt,value
2018-09-26T00:02:22.988Z,5.10
2018-09-26T00:04:53.605Z,5.10
2018-09-26T00:07:23.329Z,5.00
2018-09-26T00:09:52.694Z,5.00
2018-09-26T00:12:22.161Z,5.00
2018-09-26T00:14:51.620Z,4.90
2018-09-26T00:17:20.989Z,4.90
2018-09-26T00:19:50.399Z,4.90
2018-09-26T00:22:19.728Z,4.90
2018-09-26T00:24:49.152Z,4.90
2018-09-26T00:27:18.414Z,4.90
2018-09-26T00:29:47.700Z,4.80
2018-09-26T00:32:16.872Z,4.80
2018-09-26T00:34:46.412Z,4.80
2018-09-26T00:37:15.776Z,4.80
2018-09-26T00:39:45.309Z,4.80
2018-09-26T00:42:14.569Z,4.70
2018-09-26T00:44:43.902Z,4.80
2018-09-26T00:47:13.136Z,4.70
2018-09-26T00:49:43.506Z,4.70
2018-09-26T00:52:13.177Z,4.70
2018-09-26T00:54:42.420Z,4.70
2018-09-26T00:57:11.750Z,4.60
2018-09-26T00:59:41.148Z,4.60
2018-09-26T01:02:10.568Z,4.60
2018-09-26T01:04:39.864Z,4.60
2018-09-26T01:07:09.291Z,4.60
2018-09-26T01:09:38.693Z,4.50
2018-09-26T01:12:08.033Z,4.50
2018-09-26T01:14:37.229Z,4.50
2018-09-26T01:17:06.574Z,4.50
2018-09-26T01:19:35.874Z,4.50
2018-09-26T01:22:05.254Z,4.50
2018-09-26T01:24:35.598Z,4.40
2018-09-26T01:27:05.009Z,4.40
2018-09-26T01:29:34.393Z,4.40
2018-09-26T01:32:03.736Z,4.40
2018-09-26T01:34:32.995Z,4.30
2018-09-26T01:37:02.284Z,4.30
2018-09-26T01:39:31.807Z,4.20
2018-09-26T01:42:01.149Z,4.20
2018-09-26T01:44:30.392Z,4.20
2018-09-26T01:46:59.770Z,4.10
2018-09-26T01:49:29.173Z,4.10
2018-09-26T01:51:58.730Z,4.10
2018-09-26T01:54:28.138Z,4.00
2018-09-26T01:56:57.475Z,4.00
2018-09-26T01:59:26.715Z,4.00
2018-09-26T02:01:55.980Z,4.00
2018-09-26T02:04:25.566Z,4.00
2018-09-26T02:06:54.838Z,4.00
2018-09-26T02:09:24.240Z,4.00
2018-09-26T02:11:53.694Z,3.90
2018-09-26T02:14:23.113Z,3.90
2018-09-26T02:16:52.354Z,3.80
2018-09-26T02:19:21.886Z,3.80
2018-09-26T02:21:51.195Z,3.70
2018-09-26T02:24:20.789Z,3.70
2018-09-26T02:26:50.051Z,3.70
2018-09-26T02:29:19.404Z,3.70
2018-09-26T02:31:49.032Z,3.70
2018-09-26T02:34:18.191Z,3.60
2018-09-26T02:36:47.855Z,3.50
2018-09-26T02:39:17.600Z,3.60
2018-09-26T02:41:47.216Z,3.50
2018-09-26T02:44:16.595Z,3.60
2018-09-26T02:46:46.491Z,3.50
2018-09-26T02:49:16.009Z,3.50
2018-09-26T02:51:45.312Z,3.50
2018-09-26T02:54:14.719Z,3.50
2018-09-26T02:56:44.073Z,3.50
2018-09-26T02:59:13.713Z,3.50
2018-09-26T03:01:42.889Z,3.50
2018-09-26T03:04:12.343Z,3.50
2018-09-26T03:06:41.843Z,3.50
2018-09-26T03:09:11.828Z,3.50
2018-09-26T03:11:41.121Z,3.50
2018-09-26T03:14:10.543Z,3.40
2018-09-26T03:16:40.013Z,3.40
2018-09-26T03:19:09.475Z,3.40
2018-09-26T03:21:38.748Z,3.40
2018-09-26T03:24:08.141Z,3.40
2018-09-26T03:26:37.607Z,3.40
2018-09-26T03:29:06.955Z,3.30
2018-09-26T03:31:36.261Z,3.30
2018-09-26T03:34:23.657Z,3.30
2018-09-26T03:36:53.174Z,3.30
2018-09-26T03:39:22.382Z,3.30
2018-09-26T03:41:51.795Z,3.20
2018-09-26T03:44:21.299Z,3.20
2018-09-26T03:46:50.421Z,3.20
2018-09-26T03:49:19.835Z,3.20
2018-09-26T03:51:49.169Z,3.30
2018-09-26T03:54:18.662Z,3.30
2018-09-26T03:56:47.908Z,3.30
2018-09-26T03:59:17.466Z,3.30
2018-09-26T04:01:46.893Z,3.40
2018-09-26T04:04:16.184Z,3.40
2018-09-26T04:06:45.643Z,3.40
2018-09-26T04:09:15.109Z,3.40
2018-09-26T04:11:44.655Z,3.40
2018-09-26T04:14:13.967Z,3.30
2018-09-26T04:16:43.449Z,3.30
2018-09-26T04:19:12.725Z,3.30
2018-09-26T04:21:42.101Z,3.30
2018-09-26T04:24:11.743Z,3.30
2018-09-26T04:26:41.181Z,3.40
2018-09-26T04:29:10.757Z,3.30
2018-09-26T04:31:40.477Z,3.40
2018-09-26T04:34:09.641Z,3.40
2018-09-26T04:36:38.987Z,3.40
2018-09-26T04:39:10.594Z,3.40
2018-09-26T04:41:40.147Z,3.40
2018-09-26T04:44:10.009Z,3.40
2018-09-26T04:46:39.455Z,3.40
2018-09-26T04:49:08.842Z,3.40
2018-09-26T04:51:38.155Z,3.40
2018-09-26T04:54:07.714Z,3.30
2018-09-26T04:56:37.108Z,3.30
2018-09-26T04:59:06.467Z,3.30
2018-09-26T05:01:35.792Z,3.30
2018-09-26T05:04:05.153Z,3.30
2018-09-26T05:06:34.551Z,3.30
2018-09-26T05:09:03.860Z,3.30
2018-09-26T05:11:33.261Z,3.30
2018-09-26T05:14:03.057Z,3.30
2018-09-26T05:16:32.259Z,3.30
2018-09-26T05:19:01.479Z,3.40
2018-09-26T05:21:31.061Z,3.40
2018-09-26T05:24:00.457Z,3.50
2018-09-26T05:26:29.812Z,3.50
2018-09-26T05:28:59.288Z,3.50
2018-09-26T05:31:28.564Z,3.60
2018-09-26T05:33:57.792Z,3.70
2018-09-26T05:36:30.673Z,3.70
2018-09-26T05:39:00.420Z,3.70
2018-09-26T05:41:30.819Z,3.80
2018-09-26T05:44:00.050Z,3.80
2018-09-26T05:46:29.243Z,3.90
2018-09-26T05:48:58.510Z,3.90
2018-09-26T05:51:27.843Z,4.00
2018-09-26T05:53:57.487Z,4.20
2018-09-26T05:56:26.721Z,4.40
2018-09-26T05:58:56.134Z,4.50
2018-09-26T06:01:25.762Z,4.50
2018-09-26T06:03:55.591Z,4.60
2018-09-26T06:06:24.928Z,4.90
2018-09-26T06:08:57.674Z,5.20
2018-09-26T06:11:27.005Z,5.40
2018-09-26T06:13:56.845Z,5.50
2018-09-26T06:16:26.117Z,5.60
2018-09-26T06:18:55.488Z,5.60
2018-09-26T06:24:47.662Z,5.70
2018-09-26T06:27:16.935Z,6.00
2018-09-26T06:29:46.470Z,6.20
2018-09-26T06:32:15.915Z,6.30
2018-09-26T06:34:45.345Z,6.50
2018-09-26T06:37:14.610Z,6.80
2018-09-26T06:39:43.978Z,6.90
2018-09-26T06:42:13.187Z,6.80
2018-09-26T06:44:42.463Z,6.80
2018-09-26T06:47:11.685Z,6.90
2018-09-26T06:49:41.117Z,7.20
2018-09-26T06:52:10.765Z,7.60
2018-09-26T06:54:40.056Z,7.80
2018-09-26T06:57:09.206Z,8.00
2018-09-26T06:59:38.694Z,8.20
2018-09-26T07:02:08.223Z,8.50
2018-09-26T07:04:37.914Z,8.70
2018-09-26T07:07:07.022Z,9.00
2018-09-26T07:09:36.265Z,9.20
2018-09-26T07:12:05.684Z,9.50
2018-09-26T07:14:35.006Z,9.80
2018-09-26T07:17:04.260Z,10.10
2018-09-26T07:19:33.624Z,10.40
2018-09-26T07:22:03.159Z,10.60
2018-09-26T07:24:32.598Z,10.90
2018-09-26T07:27:01.946Z,11.10
2018-09-26T07:29:31.736Z,11.20
2018-09-26T07:32:01.206Z,11.00
2018-09-26T07:34:35.592Z,10.60
2018-09-26T07:37:05.108Z,10.60
2018-09-26T07:39:34.778Z,10.80
2018-09-26T07:42:08.004Z,10.40
2018-09-26T07:44:37.668Z,10.40
2018-09-26T07:47:06.882Z,10.50
2018-09-26T07:49:36.732Z,10.70
2018-09-26T07:52:05.997Z,11.00
2018-09-26T07:54:35.485Z,11.10
2018-09-26T07:57:04.924Z,11.00
2018-09-26T07:59:35.060Z,11.30
2018-09-26T08:02:04.330Z,11.60
2018-09-26T08:04:33.913Z,11.80
2018-09-26T08:07:03.429Z,12.00
2018-09-26T08:09:32.782Z,12.20
2018-09-26T08:12:02.558Z,12.40
2018-09-26T08:14:32.352Z,12.50
2018-09-26T08:17:01.534Z,12.60
2018-09-26T08:19:31.184Z,12.80
2018-09-26T08:22:00.520Z,13.00
2018-09-26T08:24:29.948Z,13.00
2018-09-26T08:26:59.638Z,13.10
2018-09-26T08:29:29.196Z,13.30
2018-09-26T08:31:58.517Z,13.40
2018-09-26T08:34:28.318Z,13.50
2018-09-26T08:36:57.792Z,13.70
2018-09-26T08:39:26.868Z,13.70
2018-09-26T08:41:56.264Z,13.70
2018-09-26T08:44:25.926Z,13.90
2018-09-26T08:46:55.340Z,14.00
2018-09-26T08:49:25.064Z,14.00
2018-09-26T08:51:54.415Z,14.10
2018-09-26T08:54:25.100Z,14.20
2018-09-26T08:56:57.636Z,14.30
2018-09-26T08:59:27.212Z,14.40
2018-09-26T09:01:56.669Z,14.50
2018-09-26T09:04:28.850Z,14.70
2018-09-26T09:07:00.936Z,14.60
2018-09-26T09:09:31.755Z,14.60
2018-09-26T09:12:01.330Z,14.80
2018-09-26T09:14:30.880Z,14.80
2018-09-26T09:17:00.333Z,14.90
2018-09-26T09:19:29.650Z,15.10
2018-09-26T09:21:59.416Z,15.00
2018-09-26T09:24:28.746Z,15.20
2018-09-26T09:26:57.992Z,15.20
2018-09-26T09:29:27.690Z,15.30
2018-09-26T09:31:56.879Z,15.50
2018-09-26T09:34:26.858Z,15.60
2018-09-26T09:36:56.203Z,15.70
2018-09-26T09:39:25.818Z,15.80
2018-09-26T09:41:55.204Z,15.70
2018-09-26T09:44:24.624Z,15.90
2018-09-26T09:46:54.012Z,16.00
2018-09-26T09:49:23.369Z,15.90
2018-09-26T09:51:52.688Z,16.00
2018-09-26T09:54:22.398Z,16.10
2018-09-26T09:56:51.819Z,16.20
2018-09-26T09:59:21.095Z,16.20
2018-09-26T10:01:50.333Z,16.30
2018-09-26T10:04:19.596Z,16.30
2018-09-26T10:06:49.092Z,16.40
2018-09-26T10:09:18.676Z,16.70
2018-09-26T10:11:47.855Z,16.80
2018-09-26T10:14:17.258Z,16.90
2018-09-26T10:16:47.023Z,17.00
2018-09-26T10:19:16.965Z,17.10
2018-09-26T10:21:47.070Z,17.10
2018-09-26T10:24:16.450Z,17.20
2018-09-26T10:26:45.876Z,17.30
2018-09-26T10:29:15.248Z,17.20
2018-09-26T10:31:44.663Z,17.30
2018-09-26T10:34:14.593Z,17.40
2018-09-26T10:36:43.907Z,17.50
2018-09-26T10:39:13.535Z,17.60
2018-09-26T10:41:42.709Z,17.20
2018-09-26T10:44:12.407Z,17.40
2018-09-26T10:46:41.785Z,17.50
2018-09-26T10:49:11.211Z,17.70
2018-09-26T10:51:40.639Z,17.90
2018-09-26T10:54:10.016Z,17.90
2018-09-26T10:56:43.426Z,17.80
2018-09-26T10:59:12.847Z,17.70
2018-09-26T11:01:42.329Z,17.70
2018-09-26T11:04:11.644Z,17.80
2018-09-26T11:06:40.899Z,17.90
2018-09-26T11:09:10.725Z,17.90
2018-09-26T11:11:40.117Z,18.20
2018-09-26T11:14:09.488Z,18.30
2018-09-26T11:16:39.140Z,18.50
2018-09-26T11:19:08.464Z,18.50
2018-09-26T11:21:37.883Z,18.40
2018-09-26T11:24:07.375Z,18.40
2018-09-26T11:26:37.356Z,18.40
2018-09-26T11:29:06.605Z,18.50
2018-09-26T11:31:35.986Z,18.60
2018-09-26T11:34:05.641Z,18.70
2018-09-26T11:36:35.108Z,18.80
2018-09-26T11:39:05.447Z,18.60
2018-09-26T11:41:34.819Z,18.70
2018-09-26T11:44:04.425Z,19.00
2018-09-26T11:46:33.733Z,19.20
2018-09-26T11:49:02.869Z,19.30
2018-09-26T11:51:32.165Z,19.40
2018-09-26T11:54:01.513Z,19.40
2018-09-26T11:56:31.363Z,19.50
2018-09-26T11:59:00.945Z,19.70
2018-09-26T12:01:30.424Z,19.80
2018-09-26T12:04:00.077Z,19.70
2018-09-26T12:06:29.407Z,19.70
2018-09-26T12:08:58.670Z,19.60
2018-09-26T12:11:27.973Z,19.50
2018-09-26T12:13:57.432Z,19.30
2018-09-26T12:16:27.046Z,19.10
2018-09-26T12:18:56.611Z,19.40
2018-09-26T12:21:30.538Z,20.00
2018-09-26T12:23:55.500Z,20.50
2018-09-26T12:26:26.045Z,20.90
2018-09-26T12:28:55.429Z,21.70
2018-09-26T12:31:24.844Z,23.30
2018-09-26T12:33:54.355Z,25.30
2018-09-26T12:36:23.766Z,26.10
2018-09-26T12:38:53.053Z,25.60
2018-09-26T12:41:22.410Z,25.30
2018-09-26T12:43:51.627Z,25.50
2018-09-26T12:46:21.254Z,25.60
2018-09-26T12:48:50.557Z,25.60
2018-09-26T12:51:20.239Z,25.80
2018-09-26T12:53:49.754Z,26.30
2018-09-26T12:56:19.446Z,26.80
2018-09-26T12:58:49.099Z,27.80
2018-09-26T13:01:18.997Z,28.80
2018-09-26T13:03:48.471Z,28.30
2018-09-26T13:06:18.051Z,28.10
2018-09-26T13:08:47.106Z,28.50
2018-09-26T13:11:16.551Z,28.50
2018-09-26T13:13:45.796Z,28.40
2018-09-26T13:16:15.537Z,28.20
2018-09-26T13:18:44.867Z,28.10
2018-09-26T13:21:14.600Z,28.20
2018-09-26T13:23:43.822Z,28.60
2018-09-26T13:26:13.282Z,28.20
2018-09-26T13:28:42.952Z,27.90
2018-09-26T13:31:12.562Z,28.30
2018-09-26T13:33:42.946Z,28.60
2018-09-26T13:36:12.047Z,28.30
2018-09-26T13:38:41.233Z,28.30
2018-09-26T13:41:10.558Z,28.00
2018-09-26T13:43:39.860Z,27.70
2018-09-26T13:46:09.273Z,27.60
2018-09-26T13:48:38.991Z,27.50
2018-09-26T13:51:08.406Z,27.20
2018-09-26T13:53:37.578Z,26.70
2018-09-26T13:56:07.475Z,26.20
2018-09-26T13:58:37.090Z,26.00
2018-09-26T14:01:06.905Z,26.00
2018-09-26T14:03:36.366Z,26.10
2018-09-26T14:06:06.355Z,25.90
2018-09-26T14:08:36.099Z,26.10
2018-09-26T14:11:05.854Z,25.80
2018-09-26T14:13:35.667Z,25.30
2018-09-26T14:16:05.515Z,24.80
2018-09-26T14:18:35.246Z,24.50
2018-09-26T14:21:05.376Z,24.30
2018-09-26T14:23:34.711Z,24.20
2018-09-26T14:26:04.058Z,24.20
2018-09-26T14:28:39.499Z,24.00
2018-09-26T14:31:09.029Z,23.90
2018-09-26T14:33:38.421Z,24.00
2018-09-26T14:36:07.834Z,24.20
2018-09-26T14:38:37.392Z,24.60
2018-09-26T14:41:06.926Z,25.10
2018-09-26T14:43:36.460Z,25.30
2018-09-26T14:46:08.285Z,25.30
2018-09-26T14:48:38.233Z,25.30
2018-09-26T14:51:07.994Z,24.90
2018-09-26T14:53:37.708Z,24.10
2018-09-26T14:56:08.096Z,23.70
2018-09-26T14:58:37.713Z,23.40
2018-09-26T15:01:07.124Z,23.00
2018-09-26T15:03:36.530Z,22.60
2018-09-26T15:06:06.206Z,22.40
2018-09-26T15:08:35.562Z,22.30
2018-09-26T15:11:04.742Z,21.90
2018-09-26T15:13:34.047Z,21.50
2018-09-26T15:16:03.255Z,21.10
2018-09-26T15:18:32.626Z,21.20
2018-09-26T15:21:01.769Z,21.60
2018-09-26T15:23:31.307Z,22.10
2018-09-26T15:26:00.617Z,22.40
2018-09-26T15:28:29.971Z,22.40
2018-09-26T15:30:59.241Z,22.50
2018-09-26T15:33:28.967Z,22.70
2018-09-26T15:35:58.088Z,22.60
2018-09-26T15:38:27.428Z,22.20
2018-09-26T15:40:58.224Z,21.80
2018-09-26T15:43:27.809Z,21.50
2018-09-26T15:45:57.207Z,21.10
2018-09-26T15:48:26.693Z,21.00
2018-09-26T15:50:55.962Z,21.10
2018-09-26T15:53:25.857Z,21.20
2018-09-26T15:55:58.593Z,21.10
2018-09-26T15:58:27.899Z,21.10
2018-09-26T16:00:57.235Z,20.90
2018-09-26T16:03:26.642Z,20.60
2018-09-26T16:05:55.768Z,20.30
2018-09-26T16:08:25.185Z,20.10
2018-09-26T16:10:55.061Z,20.10
2018-09-26T16:13:24.509Z,19.90
2018-09-26T16:15:53.896Z,19.70
2018-09-26T16:18:23.334Z,19.60
2018-09-26T16:20:52.617Z,19.30
2018-09-26T16:23:22.255Z,19.20
2018-09-26T16:25:51.617Z,19.00
2018-09-26T16:28:24.847Z,18.80
2018-09-26T16:30:54.272Z,18.70
2018-09-26T16:33:27.645Z,18.50
2018-09-26T16:35:56.865Z,18.30
2018-09-26T16:41:51.566Z,18.00
2018-09-26T16:44:20.845Z,17.80
2018-09-26T16:46:50.226Z,17.60
2018-09-26T16:49:19.467Z,17.50
2018-09-26T16:51:48.964Z,17.30
2018-09-26T16:54:18.246Z,17.10
2018-09-26T16:56:47.381Z,17.00
2018-09-26T16:59:16.883Z,16.80
2018-09-26T17:01:47.007Z,16.70
2018-09-26T17:04:16.262Z,16.60
2018-09-26T17:06:46.323Z,16.40
2018-09-26T17:09:15.384Z,16.20
2018-09-26T17:11:44.673Z,16.10
2018-09-26T17:14:13.972Z,16.00
2018-09-26T17:16:43.520Z,15.80
2018-09-26T17:19:13.044Z,15.70
2018-09-26T17:21:42.639Z,15.50
2018-09-26T17:24:12.084Z,15.40
2018-09-26T17:26:42.132Z,15.30
2018-09-26T17:29:11.555Z,15.10
2018-09-26T17:31:40.867Z,15.00
2018-09-26T17:34:15.857Z,14.90
2018-09-26T17:36:45.202Z,14.70
2018-09-26T17:39:14.913Z,14.60
2018-09-26T17:41:44.523Z,14.40
2018-09-26T17:44:14.053Z,14.30
2018-09-26T17:46:44.023Z,14.20
2018-09-26T17:49:13.459Z,14.10
2018-09-26T17:51:50.326Z,14.00
2018-09-26T17:54:19.602Z,14.00
2018-09-26T17:56:49.234Z,13.90
2018-09-26T17:59:18.668Z,13.80
2018-09-26T18:01:53.847Z,13.70
2018-09-26T18:04:26.607Z,13.60
2018-09-26T18:06:55.902Z,13.50
2018-09-26T18:09:27.593Z,13.40
2018-09-26T18:11:57.245Z,13.40
2018-09-26T18:14:33.049Z,13.30
2018-09-26T18:17:06.194Z,13.20
2018-09-26T18:19:39.417Z,13.10
2018-09-26T18:22:10.813Z,13.00
2018-09-26T18:24:43.679Z,12.90
2018-09-26T18:30:33.445Z,12.80
2018-09-26T18:33:04.990Z,12.70
2018-09-26T18:35:34.703Z,12.60
2018-09-26T18:38:04.068Z,12.50
2018-09-26T18:40:33.159Z,12.40
2018-09-26T18:43:02.560Z,12.30
2018-09-26T18:45:35.139Z,12.30
2018-09-26T18:48:04.493Z,12.20
2018-09-26T18:50:33.669Z,12.10
2018-09-26T18:53:03.320Z,12.10
2018-09-26T18:55:32.727Z,12.00
2018-09-26T18:58:02.189Z,12.00
2018-09-26T19:00:37.353Z,11.90
2018-09-26T19:03:06.724Z,11.80
2018-09-26T19:05:35.660Z,11.80
2018-09-26T19:08:04.961Z,11.80
2018-09-26T19:10:34.307Z,11.70
2018-09-26T19:13:03.551Z,11.70
2018-09-26T19:15:33.290Z,11.60
2018-09-26T19:18:02.680Z,11.60
2018-09-26T19:20:32.131Z,11.50
2018-09-26T19:23:01.521Z,11.50
2018-09-26T19:25:30.914Z,11.40
2018-09-26T19:28:00.166Z,11.40
2018-09-26T19:30:29.609Z,11.30
2018-09-26T19:32:58.932Z,11.30
2018-09-26T19:35:28.292Z,11.20
2018-09-26T19:37:57.765Z,11.20
2018-09-26T19:40:27.368Z,11.10
2018-09-26T19:42:57.047Z,11.10
2018-09-26T19:45:26.704Z,11.00
2018-09-26T19:47:56.431Z,11.00
2018-09-26T19:50:25.599Z,10.90
2018-09-26T19:52:55.218Z,10.90
2018-09-26T19:55:24.443Z,10.90
2018-09-26T19:57:54.019Z,10.90
2018-09-26T20:00:23.261Z,10.80
2018-09-26T20:02:54.798Z,10.80
2018-09-26T20:05:24.234Z,10.80
2018-09-26T20:07:53.651Z,10.70
2018-09-26T20:10:23.047Z,10.70
2018-09-26T20:12:52.570Z,10.60
2018-09-26T20:15:21.967Z,10.50
2018-09-26T20:17:51.181Z,10.50
2018-09-26T20:20:20.394Z,10.50
2018-09-26T20:22:49.559Z,10.40
2018-09-26T20:25:24.816Z,10.30
2018-09-26T20:27:54.144Z,10.20
2018-09-26T20:30:23.565Z,10.30
2018-09-26T20:32:52.731Z,10.20
2018-09-26T20:35:22.082Z,10.20
2018-09-26T20:37:51.592Z,10.10
2018-09-26T20:40:20.884Z,10.10
2018-09-26T20:42:50.080Z,10.10
2018-09-26T20:45:19.401Z,10.00
2018-09-26T20:47:48.655Z,10.00
2018-09-26T20:50:17.863Z,10.00
2018-09-26T20:52:46.971Z,9.90
2018-09-26T20:55:16.534Z,9.90
2018-09-26T20:57:46.197Z,9.80
2018-09-26T21:00:15.426Z,9.80
2018-09-26T21:02:44.951Z,9.70
2018-09-26T21:05:14.248Z,9.70
2018-09-26T21:07:43.484Z,9.60
2018-09-26T21:10:12.959Z,9.60
2018-09-26T21:12:42.374Z,9.60
2018-09-26T21:15:13.313Z,9.50
2018-09-26T21:17:42.652Z,9.50
2018-09-26T21:20:11.952Z,9.50
2018-09-26T21:22:41.324Z,9.40
2018-09-26T21:25:10.693Z,9.40
2018-09-26T21:27:40.306Z,9.40
2018-09-26T21:30:09.804Z,9.30
2018-09-26T21:32:39.539Z,9.30
2018-09-26T21:35:09.025Z,9.20
2018-09-26T21:37:38.536Z,9.20
2018-09-26T21:40:07.837Z,9.20
2018-09-26T21:42:37.307Z,9.20
2018-09-26T21:45:06.757Z,9.20
2018-09-26T21:47:36.206Z,9.20
2018-09-26T21:50:06.129Z,9.20
2018-09-26T21:52:35.834Z,9.20
2018-09-26T21:55:05.242Z,9.20
2018-09-26T21:57:34.536Z,9.20
2018-09-26T22:00:03.811Z,9.20
2018-09-26T22:02:33.020Z,9.10
2018-09-26T22:05:02.365Z,9.10
2018-09-26T22:07:31.772Z,9.10
2018-09-26T22:10:00.845Z,9.10
2018-09-26T22:12:30.739Z,9.10
2018-09-26T22:14:59.946Z,9.00
2018-09-26T22:17:29.022Z,9.00
2018-09-26T22:19:58.186Z,9.00
2018-09-26T22:22:27.672Z,9.00
2018-09-26T22:24:57.053Z,9.00
2018-09-26T22:27:26.839Z,9.00
2018-09-26T22:29:56.399Z,9.00
2018-09-26T22:32:25.680Z,9.00
2018-09-26T22:34:56.809Z,9.00
2018-09-26T22:37:25.982Z,8.90
2018-09-26T22:39:55.928Z,8.90
2018-09-26T22:42:25.664Z,8.90
2018-09-26T22:44:54.824Z,8.90
2018-09-26T22:47:24.358Z,8.90
2018-09-26T22:49:53.752Z,8.90
2018-09-26T22:52:22.752Z,8.90
2018-09-26T22:54:52.346Z,8.90
2018-09-26T22:57:21.875Z,8.80
2018-09-26T22:59:51.070Z,8.80
2018-09-26T23:02:20.164Z,8.80
2018-09-26T23:04:49.477Z,8.80
2018-09-26T23:07:19.029Z,8.80
2018-09-26T23:09:48.200Z,8.80
2018-09-26T23:12:17.258Z,8.70
2018-09-26T23:14:47.312Z,8.70
2018-09-26T23:17:17.690Z,8.70
2018-09-26T23:19:46.973Z,8.70
2018-09-26T23:22:16.255Z,8.60
2018-09-26T23:24:46.297Z,8.60
2018-09-26T23:27:15.903Z,8.60
2018-09-26T23:29:45.664Z,8.60
2018-09-26T23:32:14.799Z,8.50
2018-09-26T23:34:44.349Z,8.50
2018-09-26T23:37:13.264Z,8.50
2018-09-26T23:39:42.458Z,8.40
2018-09-26T23:42:11.548Z,8.40
2018-09-26T23:44:40.860Z,8.40
2018-09-26T23:47:10.381Z,8.40
2018-09-26T23:49:40.040Z,8.40
2018-09-26T23:52:09.060Z,8.30
2018-09-26T23:54:38.270Z,8.30
2018-09-26T23:57:08.030Z,8.30
2018-09-26T23:59:37.138Z,8.30
